sensor_id;sensor_type;location;lat;lon;timestamp;temperature;humidity
19999;DHT22;10160;50.926;4.374;2024-02-16T00:01:20;14.80;99.90
19999;DHT22;10160;50.926;4.374;2024-02-16T00:03:46;14.80;99.90
19999;DHT22;10160;50.926;4.374;2024-02-16T00:06:11;14.90;99.90
19999;DHT22;10160;50.926;4.374;2024-02-16T00:08:37;14.80;99.90
19999;DHT22;10160;50.926;4.374;2024-02-16T00:11:04;14.70;99.90
19999;DHT22;10160;50.926;4.374;2024-02-16T00:13:30;14.80;99.90
19999;DHT22;10160;50.926;4.374;2024-02-16T00:15:56;14.80;99.90
19999;DHT22;10160;50.926;4.374;2024-02-16T00:18:22;14.80;99.90
19999;DHT22;10160;50.926;4.374;2024-02-16T00:20:48;14.80;99.90
19999;DHT22;10160;50.926;4.374;2024-02-16T00:23:16;14.80;99.90
19999;DHT22;10160;50.926;4.374;2024-02-16T00:25:41;14.70;99.90
19999;DHT22;10160;50.926;4.374;2024-02-16T00:28:08;14.80;99.90
19999;DHT22;10160;50.926;4.374;2024-02-16T00:30:33;14.90;99.90
19999;DHT22;10160;50.926;4.374;2024-02-16T00:32:59;14.90;99.90
19999;DHT22;10160;50.926;4.374;2024-02-16T00:35:26;14.90;99.90
19999;DHT22;10160;50.926;4.374;2024-02-16T00:37:52;14.80;99.90
19999;DHT22;10160;50.926;4.374;2024-02-16T00:40:17;14.80;99.90
19999;DHT22;10160;50.926;4.374;2024-02-16T00:42:43;14.70;99.90
19999;DHT22;10160;50.926;4.374;2024-02-16T00:45:09;14.70;99.90
19999;DHT22;10160;50.926;4.374;2024-02-16T00:47:34;14.60;99.90
19999;DHT22;10160;50.926;4.374;2024-02-16T00:50:00;14.80;99.90
19999;DHT22;10160;50.926;4.374;2024-02-16T00:52:26;14.90;99.90
19999;DHT22;10160;50.926;4.374;2024-02-16T00:54:52;14.90;99.90
19999;DHT22;10160;50.926;4.374;2024-02-16T00:57:17;14.80;99.90
19999;DHT22;10160;50.926;4.374;2024-02-16T00:59:43;14.90;99.90
19999;DHT22;10160;50.926;4.374;2024-02-16T01:02:08;14.90;99.90
19999;DHT22;10160;50.926;4.374;2024-02-16T01:04:35;14.90;99.90
19999;DHT22;10160;50.926;4.374;2024-02-16T01:07:01;14.90;99.90
19999;DHT22;10160;50.926;4.374;2024-02-16T01:09:27;14.90;99.90
19999;DHT22;10160;50.926;4.374;2024-02-16T01:11:52;14.70;99.90
19999;DHT22;10160;50.926;4.374;2024-02-16T01:14:18;14.80;99.90
19999;DHT22;10160;50.926;4.374;2024-02-16T01:16:45;14.90;99.90
19999;DHT22;10160;50.926;4.374;2024-02-16T01:19:11;14.80;99.90
19999;DHT22;10160;50.926;4.374;2024-02-16T01:21:38;14.80;99.90
19999;DHT22;10160;50.926;4.374;2024-02-16T01:24:04;14.80;99.90
19999;DHT22;10160;50.926;4.374;2024-02-16T01:26:30;14.80;99.90
19999;DHT22;10160;50.926;4.374;2024-02-16T01:28:56;14.80;99.90
19999;DHT22;10160;50.926;4.374;2024-02-16T01:31:23;14.90;99.90
19999;DHT22;10160;50.926;4.374;2024-02-16T01:33:49;15.00;99.90
19999;DHT22;10160;50.926;4.374;2024-02-16T01:36:14;14.80;99.90
19999;DHT22;10160;50.926;4.374;2024-02-16T01:38:40;14.80;99.90
19999;DHT22;10160;50.926;4.374;2024-02-16T01:41:05;14.90;99.90
19999;DHT22;10160;50.926;4.374;2024-02-16T01:43:33;14.70;99.90
19999;DHT22;10160;50.926;4.374;2024-02-16T01:45:58;14.70;99.90
19999;DHT22;10160;50.926;4.374;2024-02-16T01:48:25;14.80;99.90
19999;DHT22;10160;50.926;4.374;2024-02-16T01:50:52;14.60;99.90
19999;DHT22;10160;50.926;4.374;2024-02-16T01:53:19;14.70;99.90
19999;DHT22;10160;50.926;4.374;2024-02-16T01:55:46;14.60;99.90
19999;DHT22;10160;50.926;4.374;2024-02-16T01:58:12;14.60;99.90
19999;DHT22;10160;50.926;4.374;2024-02-16T02:00:38;14.60;99.90
19999;DHT22;10160;50.926;4.374;2024-02-16T02:03:04;14.60;99.90
19999;DHT22;10160;50.926;4.374;2024-02-16T02:05:32;14.60;99.90
19999;DHT22;10160;50.926;4.374;2024-02-16T02:07:58;14.60;99.90
19999;DHT22;10160;50.926;4.374;2024-02-16T02:10:24;14.50;99.90
19999;DHT22;10160;50.926;4.374;2024-02-16T02:12:49;14.50;99.90
19999;DHT22;10160;50.926;4.374;2024-02-16T02:15:15;14.50;99.90
19999;DHT22;10160;50.926;4.374;2024-02-16T02:17:41;14.50;99.90
19999;DHT22;10160;50.926;4.374;2024-02-16T02:20:07;14.50;99.90
19999;DHT22;10160;50.926;4.374;2024-02-16T02:22:37;14.70;99.90
19999;DHT22;10160;50.926;4.374;2024-02-16T02:25:04;14.60;99.90
19999;DHT22;10160;50.926;4.374;2024-02-16T02:27:30;14.50;99.90
19999;DHT22;10160;50.926;4.374;2024-02-16T02:29:56;14.60;99.90
19999;DHT22;10160;50.926;4.374;2024-02-16T02:32:21;14.50;99.90
19999;DHT22;10160;50.926;4.374;2024-02-16T02:34:47;14.50;99.90
19999;DHT22;10160;50.926;4.374;2024-02-16T02:37:13;14.50;99.90
19999;DHT22;10160;50.926;4.374;2024-02-16T02:39:38;14.60;99.90
19999;DHT22;10160;50.926;4.374;2024-02-16T02:42:05;14.60;99.90
19999;DHT22;10160;50.926;4.374;2024-02-16T02:44:32;14.70;99.90
19999;DHT22;10160;50.926;4.374;2024-02-16T02:46:57;14.70;99.90
19999;DHT22;10160;50.926;4.374;2024-02-16T02:49:23;14.50;99.90
19999;DHT22;10160;50.926;4.374;2024-02-16T02:51:49;14.60;99.90
19999;DHT22;10160;50.926;4.374;2024-02-16T02:54:14;14.70;99.90
19999;DHT22;10160;50.926;4.374;2024-02-16T02:56:40;14.70;99.90
19999;DHT22;10160;50.926;4.374;2024-02-16T02:59:05;14.70;99.90
19999;DHT22;10160;50.926;4.374;2024-02-16T03:01:31;14.80;99.90
19999;DHT22;10160;50.926;4.374;2024-02-16T03:03:57;14.80;99.90
19999;DHT22;10160;50.926;4.374;2024-02-16T03:06:25;14.80;99.90
19999;DHT22;10160;50.926;4.374;2024-02-16T03:08:51;14.80;99.90
19999;DHT22;10160;50.926;4.374;2024-02-16T03:11:16;14.80;99.90
19999;DHT22;10160;50.926;4.374;2024-02-16T03:13:42;14.80;99.90
19999;DHT22;10160;50.926;4.374;2024-02-16T03:16:08;14.80;99.90
19999;DHT22;10160;50.926;4.374;2024-02-16T03:18:34;14.80;99.90
19999;DHT22;10160;50.926;4.374;2024-02-16T03:21:00;14.80;99.90
19999;DHT22;10160;50.926;4.374;2024-02-16T03:23:26;14.90;99.90
19999;DHT22;10160;50.926;4.374;2024-02-16T03:25:51;14.90;99.90
19999;DHT22;10160;50.926;4.374;2024-02-16T03:28:17;14.90;99.90
19999;DHT22;10160;50.926;4.374;2024-02-16T03:30:44;14.90;99.90
19999;DHT22;10160;50.926;4.374;2024-02-16T03:33:10;14.90;99.90
19999;DHT22;10160;50.926;4.374;2024-02-16T03:35:36;14.80;99.90
19999;DHT22;10160;50.926;4.374;2024-02-16T03:38:05;14.90;99.90
19999;DHT22;10160;50.926;4.374;2024-02-16T03:40:31;14.90;99.90
19999;DHT22;10160;50.926;4.374;2024-02-16T03:42:57;14.90;99.90
19999;DHT22;10160;50.926;4.374;2024-02-16T03:45:24;14.80;99.90
19999;DHT22;10160;50.926;4.374;2024-02-16T03:47:50;14.80;99.90
19999;DHT22;10160;50.926;4.374;2024-02-16T03:50:18;14.90;99.90
19999;DHT22;10160;50.926;4.374;2024-02-16T03:52:44;14.90;99.90
19999;DHT22;10160;50.926;4.374;2024-02-16T03:55:09;14.90;99.90
19999;DHT22;10160;50.926;4.374;2024-02-16T03:57:35;15.00;99.90
19999;DHT22;10160;50.926;4.374;2024-02-16T04:00:01;14.80;99.90
19999;DHT22;10160;50.926;4.374;2024-02-16T04:02:27;14.90;99.90
19999;DHT22;10160;50.926;4.374;2024-02-16T04:04:53;14.90;99.90
19999;DHT22;10160;50.926;4.374;2024-02-16T04:07:19;15.00;99.90
19999;DHT22;10160;50.926;4.374;2024-02-16T04:09:45;15.00;99.90
19999;DHT22;10160;50.926;4.374;2024-02-16T04:12:10;14.90;99.90
19999;DHT22;10160;50.926;4.374;2024-02-16T04:14:36;14.90;99.90
19999;DHT22;10160;50.926;4.374;2024-02-16T04:17:02;14.90;99.90
19999;DHT22;10160;50.926;4.374;2024-02-16T04:19:28;14.90;99.90
19999;DHT22;10160;50.926;4.374;2024-02-16T04:21:54;14.90;99.90
19999;DHT22;10160;50.926;4.374;2024-02-16T04:24:20;15.00;99.90
19999;DHT22;10160;50.926;4.374;2024-02-16T04:26:46;15.10;99.90
19999;DHT22;10160;50.926;4.374;2024-02-16T04:29:11;15.10;99.90
19999;DHT22;10160;50.926;4.374;2024-02-16T04:31:41;15.10;99.90
19999;DHT22;10160;50.926;4.374;2024-02-16T04:34:12;15.10;99.90
19999;DHT22;10160;50.926;4.374;2024-02-16T04:36:37;15.00;99.90
19999;DHT22;10160;50.926;4.374;2024-02-16T04:39:03;15.00;99.90
19999;DHT22;10160;50.926;4.374;2024-02-16T04:41:29;15.00;99.90
19999;DHT22;10160;50.926;4.374;2024-02-16T04:43:54;15.10;99.90
19999;DHT22;10160;50.926;4.374;2024-02-16T04:46:21;15.10;99.90
19999;DHT22;10160;50.926;4.374;2024-02-16T04:48:46;15.30;99.90
19999;DHT22;10160;50.926;4.374;2024-02-16T04:51:12;15.20;99.90
19999;DHT22;10160;50.926;4.374;2024-02-16T04:53:39;15.20;99.90
19999;DHT22;10160;50.926;4.374;2024-02-16T04:56:05;15.20;99.90
19999;DHT22;10160;50.926;4.374;2024-02-16T04:58:31;15.10;99.90
19999;DHT22;10160;50.926;4.374;2024-02-16T05:00:57;15.10;99.90
19999;DHT22;10160;50.926;4.374;2024-02-16T05:03:23;15.10;99.90
19999;DHT22;10160;50.926;4.374;2024-02-16T05:05:49;15.10;99.90
19999;DHT22;10160;50.926;4.374;2024-02-16T05:08:15;15.10;99.90
19999;DHT22;10160;50.926;4.374;2024-02-16T05:10:40;15.10;99.90
19999;DHT22;10160;50.926;4.374;2024-02-16T05:13:06;15.10;99.90
19999;DHT22;10160;50.926;4.374;2024-02-16T05:15:32;15.20;99.90
19999;DHT22;10160;50.926;4.374;2024-02-16T05:17:58;15.10;99.90
19999;DHT22;10160;50.926;4.374;2024-02-16T05:20:23;15.10;99.90
19999;DHT22;10160;50.926;4.374;2024-02-16T05:22:49;15.00;99.90
19999;DHT22;10160;50.926;4.374;2024-02-16T05:25:18;15.10;99.90
19999;DHT22;10160;50.926;4.374;2024-02-16T05:27:45;15.10;99.90
19999;DHT22;10160;50.926;4.374;2024-02-16T05:30:11;15.10;99.90
19999;DHT22;10160;50.926;4.374;2024-02-16T05:32:39;15.10;99.90
19999;DHT22;10160;50.926;4.374;2024-02-16T05:35:06;15.00;99.90
19999;DHT22;10160;50.926;4.374;2024-02-16T05:37:37;15.00;99.90
19999;DHT22;10160;50.926;4.374;2024-02-16T05:40:07;15.00;99.90
19999;DHT22;10160;50.926;4.374;2024-02-16T05:42:45;15.10;99.90
19999;DHT22;10160;50.926;4.374;2024-02-16T05:45:11;15.10;99.90
19999;DHT22;10160;50.926;4.374;2024-02-16T05:47:36;15.10;99.90
19999;DHT22;10160;50.926;4.374;2024-02-16T05:50:04;15.10;99.90
19999;DHT22;10160;50.926;4.374;2024-02-16T05:52:30;15.10;99.90
19999;DHT22;10160;50.926;4.374;2024-02-16T05:54:56;15.10;99.90
19999;DHT22;10160;50.926;4.374;2024-02-16T05:57:21;15.10;99.90
19999;DHT22;10160;50.926;4.374;2024-02-16T05:59:49;15.10;99.90
19999;DHT22;10160;50.926;4.374;2024-02-16T06:02:14;15.00;99.90
19999;DHT22;10160;50.926;4.374;2024-02-16T06:04:41;15.00;99.90
19999;DHT22;10160;50.926;4.374;2024-02-16T06:07:07;15.00;99.90
19999;DHT22;10160;50.926;4.374;2024-02-16T06:09:33;15.00;99.90
19999;DHT22;10160;50.926;4.374;2024-02-16T06:12:03;15.00;99.90
19999;DHT22;10160;50.926;4.374;2024-02-16T06:14:31;14.90;99.90
19999;DHT22;10160;50.926;4.374;2024-02-16T06:16:57;14.90;99.90
19999;DHT22;10160;50.926;4.374;2024-02-16T06:19:22;15.00;99.90
19999;DHT22;10160;50.926;4.374;2024-02-16T06:21:48;15.00;99.90
19999;DHT22;10160;50.926;4.374;2024-02-16T06:24:14;15.00;99.90
19999;DHT22;10160;50.926;4.374;2024-02-16T06:26:39;15.00;99.90
19999;DHT22;10160;50.926;4.374;2024-02-16T06:29:05;14.90;99.90
19999;DHT22;10160;50.926;4.374;2024-02-16T06:31:30;14.80;99.90
19999;DHT22;10160;50.926;4.374;2024-02-16T06:33:56;14.80;99.90
19999;DHT22;10160;50.926;4.374;2024-02-16T06:36:22;14.80;99.90
19999;DHT22;10160;50.926;4.374;2024-02-16T06:38:48;14.80;99.90
19999;DHT22;10160;50.926;4.374;2024-02-16T06:41:14;14.80;99.90
19999;DHT22;10160;50.926;4.374;2024-02-16T06:43:40;14.70;99.90
19999;DHT22;10160;50.926;4.374;2024-02-16T06:46:05;14.70;99.90
19999;DHT22;10160;50.926;4.374;2024-02-16T06:48:31;14.70;99.90
19999;DHT22;10160;50.926;4.374;2024-02-16T06:50:57;14.60;99.90
19999;DHT22;10160;50.926;4.374;2024-02-16T06:53:22;14.70;99.90
19999;DHT22;10160;50.926;4.374;2024-02-16T06:55:48;14.60;99.90
19999;DHT22;10160;50.926;4.374;2024-02-16T06:58:14;14.60;99.90
19999;DHT22;10160;50.926;4.374;2024-02-16T07:00:39;14.60;99.90
19999;DHT22;10160;50.926;4.374;2024-02-16T07:03:07;14.60;99.90
19999;DHT22;10160;50.926;4.374;2024-02-16T07:05:34;14.50;99.90
19999;DHT22;10160;50.926;4.374;2024-02-16T07:07:59;14.40;99.90
19999;DHT22;10160;50.926;4.374;2024-02-16T07:10:25;14.50;99.90
19999;DHT22;10160;50.926;4.374;2024-02-16T07:12:51;14.40;99.90
19999;DHT22;10160;50.926;4.374;2024-02-16T07:15:16;14.40;99.90
19999;DHT22;10160;50.926;4.374;2024-02-16T07:17:42;14.50;99.90
19999;DHT22;10160;50.926;4.374;2024-02-16T07:20:08;14.40;99.90
19999;DHT22;10160;50.926;4.374;2024-02-16T07:22:33;14.30;99.90
19999;DHT22;10160;50.926;4.374;2024-02-16T07:25:00;14.30;99.90
19999;DHT22;10160;50.926;4.374;2024-02-16T07:27:26;14.30;99.90
19999;DHT22;10160;50.926;4.374;2024-02-16T07:29:51;14.30;99.90
19999;DHT22;10160;50.926;4.374;2024-02-16T07:32:17;14.30;99.90
19999;DHT22;10160;50.926;4.374;2024-02-16T07:34:47;14.30;99.90
19999;DHT22;10160;50.926;4.374;2024-02-16T07:37:13;14.30;99.90
19999;DHT22;10160;50.926;4.374;2024-02-16T07:39:39;14.30;99.90
19999;DHT22;10160;50.926;4.374;2024-02-16T07:42:06;14.30;99.90
19999;DHT22;10160;50.926;4.374;2024-02-16T07:44:35;14.30;99.90
19999;DHT22;10160;50.926;4.374;2024-02-16T07:47:01;14.30;99.90
19999;DHT22;10160;50.926;4.374;2024-02-16T07:49:26;14.40;99.90
19999;DHT22;10160;50.926;4.374;2024-02-16T07:51:52;14.40;99.90
19999;DHT22;10160;50.926;4.374;2024-02-16T07:54:18;14.40;99.90
19999;DHT22;10160;50.926;4.374;2024-02-16T07:56:43;14.40;99.90
19999;DHT22;10160;50.926;4.374;2024-02-16T07:59:09;14.50;99.90
19999;DHT22;10160;50.926;4.374;2024-02-16T08:01:35;14.40;99.90
19999;DHT22;10160;50.926;4.374;2024-02-16T08:04:00;14.40;99.90
19999;DHT22;10160;50.926;4.374;2024-02-16T08:06:26;14.40;99.90
19999;DHT22;10160;50.926;4.374;2024-02-16T08:08:53;14.40;99.90
19999;DHT22;10160;50.926;4.374;2024-02-16T08:11:19;14.40;99.90
19999;DHT22;10160;50.926;4.374;2024-02-16T08:13:45;14.50;99.90
19999;DHT22;10160;50.926;4.374;2024-02-16T08:16:11;14.50;99.90
19999;DHT22;10160;50.926;4.374;2024-02-16T08:18:37;14.50;99.90
19999;DHT22;10160;50.926;4.374;2024-02-16T08:21:03;14.60;99.90
19999;DHT22;10160;50.926;4.374;2024-02-16T08:23:28;14.60;99.90
19999;DHT22;10160;50.926;4.374;2024-02-16T08:25:55;14.60;99.90
19999;DHT22;10160;50.926;4.374;2024-02-16T08:28:23;14.60;99.90
19999;DHT22;10160;50.926;4.374;2024-02-16T08:30:50;14.60;99.90
19999;DHT22;10160;50.926;4.374;2024-02-16T08:33:15;14.70;99.90
19999;DHT22;10160;50.926;4.374;2024-02-16T08:35:41;14.60;99.90
19999;DHT22;10160;50.926;4.374;2024-02-16T08:38:06;14.70;99.90
19999;DHT22;10160;50.926;4.374;2024-02-16T08:40:37;14.70;99.90
19999;DHT22;10160;50.926;4.374;2024-02-16T08:43:03;14.70;99.90
19999;DHT22;10160;50.926;4.374;2024-02-16T08:45:30;14.70;99.90
19999;DHT22;10160;50.926;4.374;2024-02-16T08:47:56;14.70;99.90
19999;DHT22;10160;50.926;4.374;2024-02-16T08:50:23;14.70;99.90
19999;DHT22;10160;50.926;4.374;2024-02-16T08:52:49;14.60;99.90
19999;DHT22;10160;50.926;4.374;2024-02-16T08:55:15;14.60;99.90
19999;DHT22;10160;50.926;4.374;2024-02-16T08:57:41;14.70;99.90
19999;DHT22;10160;50.926;4.374;2024-02-16T09:00:07;14.60;99.90
19999;DHT22;10160;50.926;4.374;2024-02-16T09:02:33;14.50;99.90
19999;DHT22;10160;50.926;4.374;2024-02-16T09:04:59;14.40;99.90
19999;DHT22;10160;50.926;4.374;2024-02-16T09:07:24;14.50;99.90
19999;DHT22;10160;50.926;4.374;2024-02-16T09:09:51;14.40;99.90
19999;DHT22;10160;50.926;4.374;2024-02-16T09:12:17;14.30;99.90
19999;DHT22;10160;50.926;4.374;2024-02-16T09:14:42;14.30;99.90
19999;DHT22;10160;50.926;4.374;2024-02-16T09:17:08;14.30;99.90
19999;DHT22;10160;50.926;4.374;2024-02-16T09:19:34;14.20;99.90
19999;DHT22;10160;50.926;4.374;2024-02-16T09:22:00;14.30;99.90
19999;DHT22;10160;50.926;4.374;2024-02-16T09:24:28;14.30;99.90
19999;DHT22;10160;50.926;4.374;2024-02-16T09:26:55;14.20;99.90
19999;DHT22;10160;50.926;4.374;2024-02-16T09:29:21;14.10;99.90
19999;DHT22;10160;50.926;4.374;2024-02-16T09:31:49;14.10;99.90
19999;DHT22;10160;50.926;4.374;2024-02-16T09:34:16;14.10;99.90
19999;DHT22;10160;50.926;4.374;2024-02-16T09:36:42;14.10;99.90
19999;DHT22;10160;50.926;4.374;2024-02-16T09:39:08;14.10;99.90
19999;DHT22;10160;50.926;4.374;2024-02-16T09:41:35;14.00;99.90
19999;DHT22;10160;50.926;4.374;2024-02-16T09:44:03;13.90;99.90
19999;DHT22;10160;50.926;4.374;2024-02-16T09:46:30;14.00;99.90
19999;DHT22;10160;50.926;4.374;2024-02-16T09:48:56;14.00;99.90
19999;DHT22;10160;50.926;4.374;2024-02-16T09:51:24;14.00;99.90
19999;DHT22;10160;50.926;4.374;2024-02-16T09:53:51;13.90;99.90
19999;DHT22;10160;50.926;4.374;2024-02-16T09:56:17;13.90;99.90
19999;DHT22;10160;50.926;4.374;2024-02-16T09:58:43;14.00;99.90
19999;DHT22;10160;50.926;4.374;2024-02-16T10:01:20;14.00;99.90
19999;DHT22;10160;50.926;4.374;2024-02-16T10:03:47;14.00;99.90
19999;DHT22;10160;50.926;4.374;2024-02-16T10:06:13;14.00;99.90
19999;DHT22;10160;50.926;4.374;2024-02-16T10:08:51;13.90;99.90
19999;DHT22;10160;50.926;4.374;2024-02-16T10:11:18;14.00;99.90
19999;DHT22;10160;50.926;4.374;2024-02-16T10:14:04;14.00;99.90
19999;DHT22;10160;50.926;4.374;2024-02-16T10:16:30;14.00;99.90
19999;DHT22;10160;50.926;4.374;2024-02-16T10:19:04;14.00;99.90
19999;DHT22;10160;50.926;4.374;2024-02-16T10:21:30;14.00;99.90
19999;DHT22;10160;50.926;4.374;2024-02-16T10:23:58;14.10;99.90
19999;DHT22;10160;50.926;4.374;2024-02-16T10:26:24;14.10;99.90
19999;DHT22;10160;50.926;4.374;2024-02-16T10:28:55;14.20;99.90
19999;DHT22;10160;50.926;4.374;2024-02-16T10:31:23;14.20;99.90
19999;DHT22;10160;50.926;4.374;2024-02-16T10:34:04;14.10;99.90
19999;DHT22;10160;50.926;4.374;2024-02-16T10:36:36;14.10;99.90
19999;DHT22;10160;50.926;4.374;2024-02-16T10:39:03;14.10;99.90
19999;DHT22;10160;50.926;4.374;2024-02-16T10:41:44;14.10;99.90
19999;DHT22;10160;50.926;4.374;2024-02-16T10:44:11;14.10;99.90
19999;DHT22;10160;50.926;4.374;2024-02-16T10:46:37;14.10;99.90
19999;DHT22;10160;50.926;4.374;2024-02-16T10:49:04;14.10;99.90
19999;DHT22;10160;50.926;4.374;2024-02-16T10:51:48;14.10;99.90
19999;DHT22;10160;50.926;4.374;2024-02-16T10:54:17;14.20;99.90
19999;DHT22;10160;50.926;4.374;2024-02-16T10:56:45;14.20;99.90
19999;DHT22;10160;50.926;4.374;2024-02-16T10:59:11;14.30;99.90
19999;DHT22;10160;50.926;4.374;2024-02-16T11:01:44;14.30;99.90
19999;DHT22;10160;50.926;4.374;2024-02-16T11:04:17;14.20;99.90
19999;DHT22;10160;50.926;4.374;2024-02-16T11:06:53;14.20;99.90
19999;DHT22;10160;50.926;4.374;2024-02-16T11:09:38;14.10;99.90
19999;DHT22;10160;50.926;4.374;2024-02-16T11:12:05;14.20;99.90
19999;DHT22;10160;50.926;4.374;2024-02-16T11:14:46;14.20;99.90
19999;DHT22;10160;50.926;4.374;2024-02-16T11:17:13;14.20;99.90
19999;DHT22;10160;50.926;4.374;2024-02-16T11:19:43;14.20;99.90
19999;DHT22;10160;50.926;4.374;2024-02-16T11:22:09;14.10;99.90
19999;DHT22;10160;50.926;4.374;2024-02-16T11:24:42;14.00;99.90
19999;DHT22;10160;50.926;4.374;2024-02-16T11:27:08;14.00;99.90
19999;DHT22;10160;50.926;4.374;2024-02-16T11:29:38;14.00;99.90
19999;DHT22;10160;50.926;4.374;2024-02-16T11:32:07;14.00;99.90
19999;DHT22;10160;50.926;4.374;2024-02-16T11:34:33;14.00;99.90
19999;DHT22;10160;50.926;4.374;2024-02-16T11:37:01;14.00;99.90
19999;DHT22;10160;50.926;4.374;2024-02-16T11:39:27;14.00;99.90
19999;DHT22;10160;50.926;4.374;2024-02-16T11:42:08;14.00;99.90
19999;DHT22;10160;50.926;4.374;2024-02-16T11:44:37;13.90;99.90
19999;DHT22;10160;50.926;4.374;2024-02-16T11:47:06;14.00;99.90
19999;DHT22;10160;50.926;4.374;2024-02-16T11:49:40;14.00;99.90
19999;DHT22;10160;50.926;4.374;2024-02-16T11:52:07;14.00;99.90
19999;DHT22;10160;50.926;4.374;2024-02-16T11:54:33;13.90;99.90
19999;DHT22;10160;50.926;4.374;2024-02-16T11:56:59;14.00;99.90
19999;DHT22;10160;50.926;4.374;2024-02-16T11:59:25;14.00;99.90
19999;DHT22;10160;50.926;4.374;2024-02-16T12:01:55;14.00;99.90
19999;DHT22;10160;50.926;4.374;2024-02-16T12:04:26;14.00;99.90
19999;DHT22;10160;50.926;4.374;2024-02-16T12:06:55;14.00;99.90
19999;DHT22;10160;50.926;4.374;2024-02-16T12:09:20;14.10;99.90
19999;DHT22;10160;50.926;4.374;2024-02-16T12:11:48;14.10;99.90
19999;DHT22;10160;50.926;4.374;2024-02-16T12:14:18;14.00;99.90
19999;DHT22;10160;50.926;4.374;2024-02-16T12:17:02;14.00;99.90
19999;DHT22;10160;50.926;4.374;2024-02-16T12:19:28;14.20;99.90
19999;DHT22;10160;50.926;4.374;2024-02-16T12:21:55;14.20;99.90
19999;DHT22;10160;50.926;4.374;2024-02-16T12:24:23;14.20;99.90
19999;DHT22;10160;50.926;4.374;2024-02-16T12:26:49;14.20;99.90
19999;DHT22;10160;50.926;4.374;2024-02-16T12:29:15;14.20;99.90
19999;DHT22;10160;50.926;4.374;2024-02-16T12:31:42;14.20;99.90
19999;DHT22;10160;50.926;4.374;2024-02-16T12:34:09;14.10;99.90
19999;DHT22;10160;50.926;4.374;2024-02-16T12:36:36;14.10;99.90
19999;DHT22;10160;50.926;4.374;2024-02-16T12:39:02;14.10;99.90
19999;DHT22;10160;50.926;4.374;2024-02-16T12:41:38;14.10;99.90
19999;DHT22;10160;50.926;4.374;2024-02-16T12:44:04;14.10;99.90
19999;DHT22;10160;50.926;4.374;2024-02-16T12:46:31;14.10;99.90
19999;DHT22;10160;50.926;4.374;2024-02-16T12:48:56;14.20;99.90
19999;DHT22;10160;50.926;4.374;2024-02-16T12:51:22;14.20;99.90
19999;DHT22;10160;50.926;4.374;2024-02-16T12:53:48;14.10;99.90
19999;DHT22;10160;50.926;4.374;2024-02-16T12:56:14;14.10;99.90
19999;DHT22;10160;50.926;4.374;2024-02-16T12:58:40;14.10;99.90
19999;DHT22;10160;50.926;4.374;2024-02-16T13:01:06;14.00;99.90
19999;DHT22;10160;50.926;4.374;2024-02-16T13:03:34;14.00;99.90
19999;DHT22;10160;50.926;4.374;2024-02-16T13:06:00;13.90;99.90
19999;DHT22;10160;50.926;4.374;2024-02-16T13:08:25;13.90;99.90
19999;DHT22;10160;50.926;4.374;2024-02-16T13:10:51;14.00;99.90
19999;DHT22;10160;50.926;4.374;2024-02-16T13:13:17;14.20;99.90
19999;DHT22;10160;50.926;4.374;2024-02-16T13:15:42;14.20;99.90
19999;DHT22;10160;50.926;4.374;2024-02-16T13:18:11;14.30;99.90
19999;DHT22;10160;50.926;4.374;2024-02-16T13:20:36;14.30;99.90
19999;DHT22;10160;50.926;4.374;2024-02-16T13:23:02;14.30;99.90
19999;DHT22;10160;50.926;4.374;2024-02-16T13:25:28;14.40;99.90
19999;DHT22;10160;50.926;4.374;2024-02-16T13:27:53;14.50;99.90
19999;DHT22;10160;50.926;4.374;2024-02-16T13:30:19;14.60;99.90
19999;DHT22;10160;50.926;4.374;2024-02-16T13:32:44;14.60;99.90
19999;DHT22;10160;50.926;4.374;2024-02-16T13:35:10;14.70;99.90
19999;DHT22;10160;50.926;4.374;2024-02-16T13:37:36;14.60;99.90
19999;DHT22;10160;50.926;4.374;2024-02-16T13:40:02;14.60;99.90
19999;DHT22;10160;50.926;4.374;2024-02-16T13:42:32;14.70;99.90
19999;DHT22;10160;50.926;4.374;2024-02-16T13:44:58;14.70;99.90
19999;DHT22;10160;50.926;4.374;2024-02-16T13:47:24;14.70;99.90
19999;DHT22;10160;50.926;4.374;2024-02-16T13:49:49;14.80;99.90
19999;DHT22;10160;50.926;4.374;2024-02-16T13:52:16;14.80;99.90
19999;DHT22;10160;50.926;4.374;2024-02-16T13:54:41;14.60;99.90
19999;DHT22;10160;50.926;4.374;2024-02-16T13:57:07;14.70;99.90
19999;DHT22;10160;50.926;4.374;2024-02-16T13:59:33;14.90;99.90
19999;DHT22;10160;50.926;4.374;2024-02-16T14:01:59;15.00;99.90
19999;DHT22;10160;50.926;4.374;2024-02-16T14:04:26;15.10;99.90
19999;DHT22;10160;50.926;4.374;2024-02-16T14:06:52;15.00;99.90
19999;DHT22;10160;50.926;4.374;2024-02-16T14:09:18;15.00;99.90
19999;DHT22;10160;50.926;4.374;2024-02-16T14:11:47;15.10;99.90
19999;DHT22;10160;50.926;4.374;2024-02-16T14:14:12;15.10;99.90
19999;DHT22;10160;50.926;4.374;2024-02-16T14:16:38;15.00;99.90
19999;DHT22;10160;50.926;4.374;2024-02-16T14:19:05;15.00;99.90
19999;DHT22;10160;50.926;4.374;2024-02-16T14:21:31;15.20;99.90
19999;DHT22;10160;50.926;4.374;2024-02-16T14:23:58;15.20;99.90
19999;DHT22;10160;50.926;4.374;2024-02-16T14:26:24;15.10;99.90
19999;DHT22;10160;50.926;4.374;2024-02-16T14:28:50;15.10;99.90
19999;DHT22;10160;50.926;4.374;2024-02-16T14:31:15;15.10;99.90
19999;DHT22;10160;50.926;4.374;2024-02-16T14:33:42;15.10;99.90
19999;DHT22;10160;50.926;4.374;2024-02-16T14:36:09;15.10;99.90
19999;DHT22;10160;50.926;4.374;2024-02-16T14:38:35;15.10;99.90
19999;DHT22;10160;50.926;4.374;2024-02-16T14:41:01;15.10;99.90
19999;DHT22;10160;50.926;4.374;2024-02-16T14:43:31;15.20;99.90
19999;DHT22;10160;50.926;4.374;2024-02-16T14:45:58;15.20;99.90
19999;DHT22;10160;50.926;4.374;2024-02-16T14:48:23;15.20;99.90
19999;DHT22;10160;50.926;4.374;2024-02-16T14:50:53;15.30;99.90
19999;DHT22;10160;50.926;4.374;2024-02-16T14:53:20;15.30;99.90
19999;DHT22;10160;50.926;4.374;2024-02-16T14:55:49;15.20;99.90
19999;DHT22;10160;50.926;4.374;2024-02-16T14:58:16;15.40;99.90
19999;DHT22;10160;50.926;4.374;2024-02-16T15:00:42;15.40;99.90
19999;DHT22;10160;50.926;4.374;2024-02-16T15:03:09;15.40;99.90
19999;DHT22;10160;50.926;4.374;2024-02-16T15:05:35;15.50;99.90
19999;DHT22;10160;50.926;4.374;2024-02-16T15:08:01;15.50;99.90
19999;DHT22;10160;50.926;4.374;2024-02-16T15:10:27;15.40;99.90
19999;DHT22;10160;50.926;4.374;2024-02-16T15:12:53;15.50;99.90
19999;DHT22;10160;50.926;4.374;2024-02-16T15:15:18;15.60;99.90
19999;DHT22;10160;50.926;4.374;2024-02-16T15:17:44;15.50;99.90
19999;DHT22;10160;50.926;4.374;2024-02-16T15:20:10;15.30;99.90
19999;DHT22;10160;50.926;4.374;2024-02-16T15:22:36;15.20;99.90
19999;DHT22;10160;50.926;4.374;2024-02-16T15:25:02;15.20;99.90
19999;DHT22;10160;50.926;4.374;2024-02-16T15:27:28;15.10;99.90